createdAt,value
2016-12-16T00:00:51.461Z,0
2016-12-16T00:01:51.749Z,0
2016-12-16T00:02:51.782Z,0
2016-12-16T00:03:51.814Z,0
2016-12-16T00:04:51.848Z,0
2016-12-16T00:05:52.482Z,0
2016-12-16T00:06:51.897Z,0
2016-12-16T00:07:51.930Z,0
2016-12-16T00:08:52.263Z,0
2016-12-16T00:09:51.975Z,0
2016-12-16T00:10:52.316Z,0
2016-12-16T00:11:52.335Z,0
2016-12-16T00:12:52.089Z,0
2016-12-16T00:13:52.106Z,0
2016-12-16T00:14:52.123Z,0
2016-12-16T00:15:52.148Z,0
2016-12-16T00:16:52.485Z,0
2016-12-16T00:17:52.503Z,0
2016-12-16T00:18:51.922Z,0
2016-12-16T00:19:52.254Z,0
2016-12-16T00:20:52.587Z,0
2016-12-16T00:21:52.320Z,0
2016-12-16T00:22:52.045Z,0
2016-12-16T00:23:52.382Z,0
2016-12-16T00:24:53.007Z,0
2016-12-16T00:25:53.036Z,0
2016-12-16T00:26:52.468Z,0
2016-12-16T00:27:52.788Z,0
2016-12-16T00:28:52.807Z,0
2016-12-16T00:29:52.539Z,0
2016-12-16T00:30:52.276Z,0
2016-12-16T00:31:52.601Z,0
2016-12-16T00:32:52.624Z,0
2016-12-16T00:33:52.964Z,0
2016-12-16T00:34:52.378Z,0
2016-12-16T00:35:52.711Z,0
2016-12-16T00:36:53.360Z,0
2016-12-16T00:37:53.060Z,0
2016-12-16T00:38:52.793Z,0
2016-12-16T00:39:52.510Z,0
2016-12-16T00:40:53.155Z,0
2016-12-16T00:41:52.876Z,0
2016-12-16T00:42:53.216Z,0
2016-12-16T00:43:53.249Z,0
2016-12-16T00:44:52.666Z,0
2016-12-16T00:45:53.598Z,0
2016-12-16T00:46:53.020Z,0
2016-12-16T00:47:53.044Z,0
2016-12-16T00:48:52.764Z,0
2016-12-16T00:49:53.098Z,0
2016-12-16T00:50:53.118Z,0
2016-12-16T00:51:53.158Z,0
2016-12-16T00:52:52.892Z,0
2016-12-16T00:53:53.216Z,0
2016-12-16T00:54:53.881Z,0
2016-12-16T00:55:53.570Z,0
2016-12-16T00:56:53.894Z,0
2016-12-16T00:57:53.323Z,0
2016-12-16T00:58:53.036Z,0
2016-12-16T00:59:53.392Z,0
2016-12-16T01:00:53.402Z,0
2016-12-16T01:01:53.446Z,0
2016-12-16T01:02:53.463Z,0
2016-12-16T01:03:54.111Z,0
2016-12-16T01:04:53.825Z,0
2016-12-16T01:05:53.541Z,0
2016-12-16T01:06:53.577Z,0
2016-12-16T01:07:53.607Z,0
2016-12-16T01:08:53.928Z,0
2016-12-16T01:09:54.268Z,0
2016-12-16T01:10:53.985Z,0
2016-12-16T01:11:54.017Z,0
2016-12-16T01:12:54.047Z,0
2016-12-16T01:13:54.079Z,0
2016-12-16T01:14:54.083Z,0
2016-12-16T01:15:53.816Z,0
2016-12-16T01:16:53.849Z,0
2016-12-16T01:17:53.890Z,0
2016-12-16T01:18:53.610Z,0
2016-12-16T01:19:53.639Z,0
2016-12-16T01:20:53.659Z,0
2016-12-16T01:21:54.649Z,0
2016-12-16T01:22:54.018Z,0
2016-12-16T01:23:54.342Z,0
2016-12-16T01:24:54.379Z,0
2016-12-16T01:25:54.091Z,0
2016-12-16T01:26:54.128Z,0
2016-12-16T01:27:54.153Z,0
2016-12-16T01:28:54.186Z,0
2016-12-16T01:29:54.827Z,0
2016-12-16T01:30:54.859Z,0
2016-12-16T01:31:54.880Z,0
2016-12-16T01:32:54.909Z,0
2016-12-16T01:33:54.322Z,0
2016-12-16T01:34:54.358Z,0
2016-12-16T01:35:54.063Z,0
2016-12-16T01:36:54.100Z,0
2016-12-16T01:37:54.136Z,0
2016-12-16T01:38:54.465Z,0
2016-12-16T01:39:54.189Z,0
2016-12-16T01:40:54.822Z,0
2016-12-16T01:41:55.147Z,0
2016-12-16T01:42:54.568Z,0
2016-12-16T01:43:54.284Z,0
2016-12-16T01:44:54.623Z,0
2016-12-16T01:45:55.258Z,0
2016-12-16T01:46:54.379Z,0
2016-12-16T01:47:55.019Z,0
2016-12-16T01:48:55.348Z,0
2016-12-16T01:49:55.077Z,0
2016-12-16T01:50:55.089Z,0
2016-12-16T01:51:54.517Z,0
2016-12-16T01:52:55.146Z,0
2016-12-16T01:53:55.187Z,0
2016-12-16T01:54:54.604Z,0
2016-12-16T01:55:54.935Z,0
2016-12-16T01:56:54.958Z,0
2016-12-16T01:57:55.306Z,0
2016-12-16T01:58:54.719Z,0
2016-12-16T01:59:54.739Z,0
2016-12-16T02:00:55.372Z,0
2016-12-16T02:01:55.101Z,0
2016-12-16T02:02:54.830Z,0
2016-12-16T02:03:55.759Z,0
2016-12-16T02:04:55.185Z,0
2016-12-16T02:05:55.212Z,0
2016-12-16T02:06:55.237Z,0
2016-12-16T02:07:55.269Z,0
2016-12-16T02:08:55.598Z,0
2016-12-16T02:09:55.312Z,0
2016-12-16T02:10:55.651Z,0
2016-12-16T02:11:55.680Z,0
2016-12-16T02:12:55.101Z,0
2016-12-16T02:13:56.042Z,0
2016-12-16T02:14:55.766Z,0
2016-12-16T02:15:55.500Z,0
2016-12-16T02:16:55.824Z,0
2016-12-16T02:17:55.537Z,0
2016-12-16T02:18:56.082Z,0
2016-12-16T02:19:55.294Z,0
2016-12-16T02:20:55.311Z,0
2016-12-16T02:21:55.647Z,0
2016-12-16T02:22:55.980Z,0
2016-12-16T02:23:56.009Z,0
2016-12-16T02:24:55.734Z,0
2016-12-16T02:25:55.774Z,0
2016-12-16T02:26:55.787Z,0
2016-12-16T02:27:56.423Z,0
2016-12-16T02:28:56.144Z,0
2016-12-16T02:29:56.472Z,0
2016-12-16T02:30:55.914Z,0
2016-12-16T02:31:56.531Z,0
2016-12-16T02:32:56.564Z,0
2016-12-16T02:33:56.600Z,0
2016-12-16T02:34:56.317Z,0
2016-12-16T02:35:55.717Z,0
2016-12-16T02:36:55.758Z,0
2016-12-16T02:37:56.087Z,0
2016-12-16T02:38:56.127Z,0
2016-12-16T02:39:56.444Z,0
2016-12-16T02:40:55.878Z,0
2016-12-16T02:41:56.514Z,0
2016-12-16T02:42:56.235Z,0
2016-12-16T02:43:56.563Z,0
2016-12-16T02:44:56.277Z,0
2016-12-16T02:45:56.302Z,0
2016-12-16T02:46:56.042Z,0
2016-12-16T02:47:56.370Z,0
2016-12-16T02:48:56.395Z,0
2016-12-16T02:49:56.728Z,0
2016-12-16T02:50:56.144Z,0
2016-12-16T02:51:57.081Z,0
2016-12-16T02:52:56.506Z,0
2016-12-16T02:53:56.225Z,0
2016-12-16T02:54:57.167Z,0
2016-12-16T02:55:56.580Z,0
2016-12-16T02:56:56.316Z,0
2016-12-16T02:57:56.333Z,0
2016-12-16T02:58:56.370Z,0
2016-12-16T02:59:57.007Z,0
2016-12-16T03:00:57.023Z,0
2016-12-16T03:01:56.752Z,0
2016-12-16T03:02:56.768Z,0
2016-12-16T03:03:56.805Z,0
2016-12-16T03:04:56.824Z,0
2016-12-16T03:05:56.559Z,0
2016-12-16T03:06:56.896Z,0
2016-12-16T03:07:56.621Z,0
2016-12-16T03:08:56.949Z,0
2016-12-16T03:09:56.975Z,0
2016-12-16T03:10:56.682Z,0
2016-12-16T03:11:56.719Z,0
2016-12-16T03:12:57.050Z,0
2016-12-16T03:13:57.381Z,0
2016-12-16T03:14:57.113Z,0
2016-12-16T03:15:57.143Z,0
2016-12-16T03:16:57.771Z,0
2016-12-16T03:17:57.796Z,0
2016-12-16T03:18:57.521Z,0
2016-12-16T03:19:56.929Z,0
2016-12-16T03:20:56.958Z,0
2016-12-16T03:21:57.307Z,0
2016-12-16T03:22:57.627Z,0
2016-12-16T03:23:57.052Z,0
2016-12-16T03:24:57.393Z,0
2016-12-16T03:25:57.102Z,0
2016-12-16T03:26:58.047Z,0
2016-12-16T03:27:57.154Z,0
2016-12-16T03:28:57.799Z,0
2016-12-16T03:29:57.514Z,0
2016-12-16T03:30:57.245Z,0
2016-12-16T03:31:57.574Z,0
2016-12-16T03:32:57.610Z,0
2016-12-16T03:33:57.953Z,0
2016-12-16T03:34:58.308Z,0
2016-12-16T03:35:57.381Z,0
2016-12-16T03:36:57.709Z,0
2016-12-16T03:37:57.441Z,0
2016-12-16T03:38:57.758Z,0
2016-12-16T03:39:57.795Z,0
2016-12-16T03:40:57.820Z,0
2016-12-16T03:41:57.840Z,0
2016-12-16T03:42:57.881Z,0
2016-12-16T03:43:57.906Z,0
2016-12-16T03:44:57.619Z,0
2016-12-16T03:45:58.255Z,0
2016-12-16T03:46:57.712Z,0
2016-12-16T03:47:58.005Z,0
2016-12-16T03:48:57.769Z,0
2016-12-16T03:49:58.373Z,0
2016-12-16T03:50:58.091Z,0
2016-12-16T03:51:58.131Z,0
2016-12-16T03:52:57.833Z,0
2016-12-16T03:53:58.481Z,0
2016-12-16T03:54:57.906Z,0
2016-12-16T03:55:57.923Z,0
2016-12-16T03:56:57.959Z,0
2016-12-16T03:57:58.287Z,0
2016-12-16T03:58:58.637Z,0
2016-12-16T03:59:58.045Z,0
2016-12-16T04:00:58.674Z,0
2016-12-16T04:01:58.695Z,0
2016-12-16T04:02:58.128Z,0
2016-12-16T04:03:58.444Z,0
2016-12-16T04:04:58.489Z,0
2016-12-16T04:05:58.197Z,0
2016-12-16T04:06:58.842Z,0
2016-12-16T04:07:59.167Z,0
2016-12-16T04:08:58.591Z,0
2016-12-16T04:09:58.920Z,0
2016-12-16T04:10:58.628Z,0
2016-12-16T04:11:58.669Z,0
2016-12-16T04:12:58.386Z,0
2016-12-16T04:13:59.023Z,0
2016-12-16T04:14:58.768Z,0
2016-12-16T04:15:59.084Z,0
2016-12-16T04:16:58.807Z,0
2016-12-16T04:17:58.534Z,0
2016-12-16T04:18:58.858Z,0
2016-12-16T04:19:59.487Z,0
2016-12-16T04:20:58.912Z,0
2016-12-16T04:21:58.944Z,0
2016-12-16T04:22:58.969Z,0
2016-12-16T04:23:58.702Z,0
2016-12-16T04:24:58.719Z,0
2016-12-16T04:25:59.359Z,0
2016-12-16T04:26:59.385Z,0
2016-12-16T04:27:59.405Z,0
2016-12-16T04:28:59.161Z,0
2016-12-16T04:29:59.154Z,0
2016-12-16T04:30:58.879Z,0
2016-12-16T04:31:59.216Z,0
2016-12-16T04:32:59.845Z,0
2016-12-16T04:33:59.281Z,0
2016-12-16T04:34:59.598Z,0
2016-12-16T04:35:59.619Z,0
2016-12-16T04:36:59.338Z,0
2016-12-16T04:37:59.079Z,0
2016-12-16T04:38:59.713Z,0
2016-12-16T04:39:59.441Z,0
2016-12-16T04:40:59.770Z,0
2016-12-16T04:41:59.527Z,0
2016-12-16T04:42:59.512Z,0
2016-12-16T04:43:59.832Z,0
2016-12-16T04:44:59.556Z,0
2016-12-16T04:45:59.903Z,0
2016-12-16T04:46:59.326Z,0
2016-12-16T04:47:59.351Z,0
2016-12-16T04:48:59.720Z,0
2016-12-16T04:49:59.705Z,0
2016-12-16T04:50:59.733Z,0
2016-12-16T04:51:59.442Z,0
2016-12-16T04:52:59.474Z,0
2016-12-16T04:53:59.851Z,0
2016-12-16T04:54:59.536Z,0
2016-12-16T04:56:00.473Z,0
2016-12-16T04:57:00.502Z,0
2016-12-16T04:57:59.934Z,0
2016-12-16T04:59:00.563Z,0
2016-12-16T04:59:59.968Z,0
2016-12-16T05:00:59.992Z,0
2016-12-16T05:01:59.725Z,0
2016-12-16T05:03:00.353Z,0
2016-12-16T05:04:00.382Z,0
2016-12-16T05:05:00.415Z,0
2016-12-16T05:06:00.481Z,0
2016-12-16T05:07:00.472Z,0
2016-12-16T05:08:00.502Z,0
2016-12-16T05:09:00.518Z,0
2016-12-16T05:10:00.251Z,0
2016-12-16T05:11:00.280Z,0
2016-12-16T05:12:00.604Z,0
2016-12-16T05:13:00.338Z,0
2016-12-16T05:14:00.362Z,0
2016-12-16T05:15:00.695Z,0
2016-12-16T05:16:00.412Z,0
2016-12-16T05:17:00.436Z,0
2016-12-16T05:18:00.156Z,0
2016-12-16T05:19:00.800Z,0
2016-12-16T05:20:00.514Z,0
2016-12-16T05:21:00.554Z,0
2016-12-16T05:22:00.879Z,0
2016-12-16T05:23:00.600Z,0
2016-12-16T05:24:01.253Z,0
2016-12-16T05:25:00.962Z,0
2016-12-16T05:26:00.379Z,0
2016-12-16T05:27:00.727Z,0
2016-12-16T05:28:00.736Z,0
2016-12-16T05:29:00.464Z,0
2016-12-16T05:30:01.106Z,0
2016-12-16T05:31:01.134Z,0
2016-12-16T05:32:01.453Z,0
2016-12-16T05:33:00.575Z,0
2016-12-16T05:34:01.200Z,0
2016-12-16T05:35:00.621Z,0
2016-12-16T05:36:00.941Z,0
2016-12-16T05:37:00.678Z,0
2016-12-16T05:38:01.307Z,0
2016-12-16T05:39:00.736Z,0
2016-12-16T05:40:01.067Z,0
2016-12-16T05:41:01.094Z,0
2016-12-16T05:42:01.726Z,0
2016-12-16T05:43:01.138Z,0
2016-12-16T05:44:01.468Z,0
2016-12-16T05:45:01.512Z,0
2016-12-16T05:46:01.231Z,0
2016-12-16T05:47:01.558Z,0
2016-12-16T05:48:01.279Z,0
2016-12-16T05:49:01.319Z,0
2016-12-16T05:50:01.648Z,0
2016-12-16T05:51:01.665Z,0
2016-12-16T05:52:01.385Z,0
2016-12-16T05:53:01.110Z,0
2016-12-16T05:54:01.439Z,0
2016-12-16T05:55:01.480Z,0
2016-12-16T05:56:02.100Z,0
2016-12-16T05:57:01.836Z,0
2016-12-16T05:58:01.566Z,0
2016-12-16T05:59:01.890Z,0
2016-12-16T06:00:01.912Z,0
2016-12-16T06:01:01.321Z,0
2016-12-16T06:02:01.348Z,0
2016-12-16T06:03:01.417Z,0
2016-12-16T06:04:02.006Z,0
2016-12-16T06:05:02.055Z,0
2016-12-16T06:06:02.084Z,0
2016-12-16T06:07:01.800Z,0
2016-12-16T06:08:01.873Z,0
2016-12-16T06:09:01.866Z,0
2016-12-16T06:10:01.564Z,0
2016-12-16T06:11:01.903Z,0
2016-12-16T06:12:01.928Z,0
2016-12-16T06:13:01.965Z,0
2016-12-16T06:14:01.989Z,0
2016-12-16T06:15:01.726Z,0
2016-12-16T06:16:02.055Z,0
2016-12-16T06:17:01.784Z,0
2016-12-16T06:18:02.409Z,0
2016-12-16T06:19:02.129Z,0
2016-12-16T06:20:02.750Z,0
2016-12-16T06:21:02.178Z,0
2016-12-16T06:22:01.915Z,0
2016-12-16T06:23:01.932Z,0
2016-12-16T06:24:01.969Z,0
2016-12-16T06:25:01.986Z,0
2016-12-16T06:26:02.027Z,0
2016-12-16T06:27:02.659Z,0
2016-12-16T06:28:02.684Z,0
2016-12-16T06:29:02.410Z,0
2016-12-16T06:30:02.138Z,0
2016-12-16T06:31:02.446Z,0
2016-12-16T06:32:02.793Z,0
2016-12-16T06:33:02.831Z,0
2016-12-16T06:34:02.852Z,0
2016-12-16T06:35:02.577Z,0
2016-12-16T06:36:02.610Z,0
2016-12-16T06:37:02.630Z,0
2016-12-16T06:38:02.355Z,0
2016-12-16T06:39:02.704Z,0
2016-12-16T06:40:03.021Z,0
2016-12-16T06:41:02.427Z,0
2016-12-16T06:42:02.449Z,0
2016-12-16T06:43:02.487Z,0
2016-12-16T06:44:03.108Z,0
2016-12-16T06:45:02.853Z,0
2016-12-16T06:46:02.870Z,0
2016-12-16T06:47:03.206Z,0
2016-12-16T06:48:02.631Z,0
2016-12-16T06:49:02.960Z,0
2016-12-16T06:50:02.980Z,0
2016-12-16T06:51:02.693Z,0
2016-12-16T06:52:03.046Z,0
2016-12-16T06:53:02.766Z,0
2016-12-16T06:54:03.091Z,0
2016-12-16T06:55:03.436Z,4
2016-12-16T06:56:03.148Z,4
2016-12-16T06:57:02.877Z,4
2016-12-16T06:58:02.925Z,0
2016-12-16T06:59:03.223Z,4
2016-12-16T07:00:03.561Z,4
2016-12-16T07:01:03.897Z,4
2016-12-16T07:02:03.909Z,4
2016-12-16T07:03:03.378Z,8
2016-12-16T07:04:03.362Z,8
2016-12-16T07:05:03.399Z,8
2016-12-16T07:06:03.728Z,8
2016-12-16T07:07:03.473Z,12
2016-12-16T07:08:04.082Z,12
2016-12-16T07:09:03.523Z,12
2016-12-16T07:10:03.843Z,16
2016-12-16T07:11:04.200Z,16
2016-12-16T07:12:03.889Z,16
2016-12-16T07:13:03.621Z,20
2016-12-16T07:14:03.642Z,20
2016-12-16T07:15:03.371Z,20
2016-12-16T07:16:04.039Z,20
2016-12-16T07:17:04.031Z,28
2016-12-16T07:18:03.757Z,28
2016-12-16T07:19:04.090Z,28
2016-12-16T07:20:04.151Z,32
2016-12-16T07:21:04.444Z,36
2016-12-16T07:22:04.469Z,36
2016-12-16T07:23:03.920Z,40
2016-12-16T07:24:03.925Z,44
2016-12-16T07:25:03.658Z,48
2016-12-16T07:26:03.671Z,52
2016-12-16T07:27:03.700Z,56
2016-12-16T07:28:04.040Z,60
2016-12-16T07:29:04.081Z,60
2016-12-16T07:30:04.114Z,64
2016-12-16T07:31:04.427Z,72
2016-12-16T07:32:04.147Z,76
2016-12-16T07:33:04.164Z,76
2016-12-16T07:34:04.200Z,84
2016-12-16T07:35:04.226Z,80
2016-12-16T07:36:04.270Z,84
2016-12-16T07:37:04.583Z,88
2016-12-16T07:38:04.012Z,92
2016-12-16T07:39:04.037Z,100
2016-12-16T07:40:04.376Z,104
2016-12-16T07:41:04.706Z,112
2016-12-16T07:42:04.111Z,116
2016-12-16T07:43:04.751Z,124
2016-12-16T07:44:05.084Z,128
2016-12-16T07:45:04.209Z,136
2016-12-16T07:46:04.237Z,144
2016-12-16T07:47:04.254Z,148
2016-12-16T07:48:04.287Z,152
2016-12-16T07:49:05.228Z,164
2016-12-16T07:50:04.653Z,172
2016-12-16T07:51:04.990Z,172
2016-12-16T07:52:05.010Z,176
2016-12-16T07:53:04.723Z,176
2016-12-16T07:54:04.451Z,192
2016-12-16T07:55:04.804Z,200
2016-12-16T07:56:04.813Z,196
2016-12-16T07:57:04.844Z,200
2016-12-16T07:58:04.874Z,208
2016-12-16T07:59:05.203Z,208
2016-12-16T08:00:04.936Z,204
2016-12-16T08:01:04.988Z,220
2016-12-16T08:02:04.981Z,236
2016-12-16T08:03:04.701Z,244
2016-12-16T08:04:05.646Z,284
2016-12-16T08:05:04.754Z,280
2016-12-16T08:06:05.091Z,296
2016-12-16T08:07:05.717Z,324
2016-12-16T08:08:05.141Z,308
2016-12-16T08:09:05.786Z,308
2016-12-16T08:10:05.807Z,316
2016-12-16T08:11:05.260Z,320
2016-12-16T08:12:05.256Z,328
2016-12-16T08:13:05.280Z,360
2016-12-16T08:14:05.622Z,376
2016-12-16T08:15:05.354Z,356
2016-12-16T08:16:05.675Z,404
2016-12-16T08:17:05.708Z,416
2016-12-16T08:18:05.433Z,372
2016-12-16T08:19:05.757Z,356
2016-12-16T08:20:05.482Z,380
2016-12-16T08:21:05.530Z,368
2016-12-16T08:22:05.533Z,376
2016-12-16T08:23:05.860Z,380
2016-12-16T08:24:05.896Z,404
2016-12-16T08:25:05.621Z,420
2016-12-16T08:26:05.977Z,440
2016-12-16T08:27:05.676Z,448
2016-12-16T08:28:06.002Z,456
2016-12-16T08:29:06.059Z,480
2016-12-16T08:30:05.749Z,472
2016-12-16T08:31:05.796Z,464
2016-12-16T08:32:05.807Z,504
2016-12-16T08:33:05.847Z,480
2016-12-16T08:34:06.176Z,472
2016-12-16T08:35:05.601Z,476
2016-12-16T08:36:06.245Z,468
2016-12-16T08:37:05.953Z,492
2016-12-16T08:38:06.275Z,488
2016-12-16T08:39:06.306Z,516
2016-12-16T08:40:06.028Z,500
2016-12-16T08:41:06.056Z,492
2016-12-16T08:42:06.397Z,512
2016-12-16T08:43:05.815Z,504
2016-12-16T08:44:06.159Z,520
2016-12-16T08:45:06.760Z,520
2016-12-16T08:46:05.904Z,532
2016-12-16T08:47:06.538Z,536
2016-12-16T08:48:06.545Z,568
2016-12-16T08:49:06.290Z,564
2016-12-16T08:50:05.998Z,580
2016-12-16T08:51:06.356Z,628
2016-12-16T08:52:06.365Z,620
2016-12-16T08:53:06.094Z,608
2016-12-16T08:54:06.723Z,608
2016-12-16T08:55:06.767Z,592
2016-12-16T08:56:06.484Z,596
2016-12-16T08:57:06.802Z,644
2016-12-16T08:58:06.229Z,660
2016-12-16T08:59:06.574Z,660
2016-12-16T09:00:06.595Z,652
2016-12-16T09:01:06.320Z,628
2016-12-16T09:02:06.950Z,644
2016-12-16T09:03:06.989Z,676
2016-12-16T09:04:07.010Z,668
2016-12-16T09:05:07.346Z,684
2016-12-16T09:06:07.371Z,700
2016-12-16T09:07:07.379Z,720
2016-12-16T09:08:06.802Z,768
2016-12-16T09:09:07.149Z,796
2016-12-16T09:10:06.550Z,820
2016-12-16T09:11:06.895Z,832
2016-12-16T09:12:06.636Z,880
2016-12-16T09:13:07.258Z,904
2016-12-16T09:14:07.269Z,904
2016-12-16T09:15:07.305Z,944
2016-12-16T09:16:06.726Z,984
2016-12-16T09:17:06.750Z,984
2016-12-16T09:18:07.388Z,980
2016-12-16T09:19:07.117Z,984
2016-12-16T09:20:07.741Z,964
2016-12-16T09:21:07.472Z,980
2016-12-16T09:22:07.815Z,988
2016-12-16T09:23:07.209Z,924
2016-12-16T09:24:07.544Z,928
2016-12-16T09:25:07.269Z,964
2016-12-16T09:26:07.607Z,960
2016-12-16T09:27:07.946Z,1016
2016-12-16T09:28:07.659Z,1016
2016-12-16T09:29:07.087Z,1000
2016-12-16T09:30:07.428Z,992
2016-12-16T09:31:07.430Z,1000
2016-12-16T09:32:07.462Z,992
2016-12-16T09:33:07.495Z,1024
2016-12-16T09:34:07.827Z,1076
2016-12-16T09:35:07.248Z,1124
2016-12-16T09:36:07.581Z,1224
2016-12-16T09:37:07.609Z,1232
2016-12-16T09:38:07.934Z,1184
2016-12-16T09:39:07.663Z,1256
2016-12-16T09:40:07.382Z,1232
2016-12-16T09:41:07.713Z,1156
2016-12-16T09:42:07.740Z,1156
2016-12-16T09:43:07.453Z,1156
2016-12-16T09:44:08.102Z,1188
2016-12-16T09:45:07.840Z,1232
2016-12-16T09:46:07.872Z,1176
2016-12-16T09:47:07.886Z,1128
2016-12-16T09:48:07.927Z,1156
2016-12-16T09:49:08.552Z,1208
2016-12-16T09:50:08.274Z,1264
2016-12-16T09:51:07.691Z,1232
2016-12-16T09:52:08.620Z,1252
2016-12-16T09:53:07.745Z,1348
2016-12-16T09:54:08.078Z,1440
2016-12-16T09:55:08.112Z,1376
2016-12-16T09:56:08.131Z,1416
2016-12-16T09:57:08.159Z,1416
2016-12-16T09:58:08.485Z,1356
2016-12-16T09:59:08.505Z,1352
2016-12-16T10:00:07.950Z,1360
2016-12-16T10:01:08.267Z,1372
2016-12-16T10:02:07.991Z,1348
2016-12-16T10:03:08.029Z,1348
2016-12-16T10:04:08.653Z,1436
2016-12-16T10:05:08.994Z,1496
2016-12-16T10:06:08.103Z,1368
2016-12-16T10:07:08.435Z,1340
2016-12-16T10:08:08.456Z,1328
2016-12-16T10:09:08.780Z,1316
2016-12-16T10:10:08.513Z,1376
2016-12-16T10:11:08.542Z,1840
2016-12-16T10:12:08.875Z,1804
2016-12-16T10:13:08.300Z,1680
2016-12-16T10:14:08.628Z,1500
2016-12-16T10:15:08.645Z,1504
2016-12-16T10:16:08.677Z,1640
2016-12-16T10:17:08.408Z,1728
2016-12-16T10:18:09.039Z,1748
2016-12-16T10:19:08.768Z,1732
2016-12-16T10:20:08.497Z,1816
2016-12-16T10:21:08.818Z,1704
2016-12-16T10:22:08.890Z,1696
2016-12-16T10:23:09.172Z,1804
2016-12-16T10:24:09.200Z,1988
2016-12-16T10:25:09.536Z,2060
2016-12-16T10:26:09.253Z,1932
2016-12-16T10:27:08.681Z,1768
2016-12-16T10:28:08.707Z,1772
2016-12-16T10:29:09.047Z,1888
2016-12-16T10:30:08.768Z,1980
2016-12-16T10:31:09.088Z,2124
2016-12-16T10:32:08.810Z,2212
2016-12-16T10:33:09.745Z,2136
2016-12-16T10:34:09.170Z,2148
2016-12-16T10:35:09.811Z,2276
2016-12-16T10:36:08.924Z,2216
2016-12-16T10:37:09.252Z,2364
2016-12-16T10:38:08.993Z,2228
2016-12-16T10:39:09.314Z,2192
2016-12-16T10:40:09.346Z,2208
2016-12-16T10:41:10.002Z,2168
2016-12-16T10:42:09.388Z,2156
2016-12-16T10:43:09.421Z,2120
2016-12-16T10:44:10.056Z,2184
2016-12-16T10:45:09.477Z,2316
2016-12-16T10:46:10.122Z,2284
2016-12-16T10:47:09.534Z,2248
2016-12-16T10:48:10.171Z,2304
2016-12-16T10:49:10.191Z,2220
2016-12-16T10:50:09.940Z,2408
2016-12-16T10:51:09.636Z,2628
2016-12-16T10:52:09.665Z,2564
2016-12-16T10:53:09.702Z,2560
2016-12-16T10:54:09.731Z,2492
2016-12-16T10:55:10.391Z,2520
2016-12-16T10:56:09.796Z,2284
2016-12-16T10:57:10.109Z,2288
2016-12-16T10:58:10.445Z,2252
2016-12-16T10:59:09.558Z,2364
2016-12-16T11:00:09.582Z,2480
2016-12-16T11:01:09.911Z,2632
2016-12-16T11:02:09.644Z,2544
2016-12-16T11:03:09.972Z,2404
2016-12-16T11:04:10.005Z,2388
2016-12-16T11:05:10.329Z,2284
2016-12-16T11:06:10.362Z,2196
2016-12-16T11:07:10.374Z,2204
2016-12-16T11:08:09.811Z,2276
2016-12-16T11:09:10.128Z,2236
2016-12-16T11:10:10.166Z,2232
2016-12-16T11:11:10.197Z,2304
2016-12-16T11:12:10.833Z,2316
2016-12-16T11:13:10.247Z,2364
2016-12-16T11:14:10.592Z,2492
2016-12-16T11:15:10.605Z,2528
2016-12-16T11:16:10.026Z,2284
2016-12-16T11:17:10.058Z,2088
2016-12-16T11:18:10.379Z,2104
2016-12-16T11:19:10.714Z,2108
2016-12-16T11:20:10.453Z,2100
2016-12-16T11:21:10.781Z,2096
2016-12-16T11:22:10.498Z,2156
2016-12-16T11:23:10.218Z,2180
2016-12-16T11:24:10.235Z,2220
2016-12-16T11:25:10.568Z,2460
2016-12-16T11:26:10.601Z,2688
2016-12-16T11:27:11.241Z,2736
2016-12-16T11:28:10.674Z,2664
2016-12-16T11:29:10.687Z,2788
2016-12-16T11:30:10.720Z,3024
2016-12-16T11:31:10.741Z,3004
2016-12-16T11:32:10.766Z,3124
2016-12-16T11:33:10.786Z,3108
2016-12-16T11:34:10.521Z,3016
2016-12-16T11:35:10.547Z,3084
2016-12-16T11:36:10.884Z,3140
2016-12-16T11:37:10.905Z,3152
2016-12-16T11:38:11.246Z,3000
2016-12-16T11:39:11.271Z,2904
2016-12-16T11:40:11.318Z,2968
2016-12-16T11:41:11.012Z,3012
2016-12-16T11:42:10.744Z,3104
2016-12-16T11:43:11.378Z,3224
2016-12-16T11:44:11.437Z,3532
2016-12-16T11:45:11.475Z,3756
2016-12-16T11:46:11.168Z,3600
2016-12-16T11:47:11.177Z,3440
2016-12-16T11:48:11.525Z,3636
2016-12-16T11:49:11.244Z,3648
2016-12-16T11:50:11.263Z,3660
2016-12-16T11:51:11.295Z,3656
2016-12-16T11:52:11.024Z,3608
2016-12-16T11:53:11.345Z,3488
2016-12-16T11:54:11.390Z,3532
2016-12-16T11:55:12.015Z,3428
2016-12-16T11:56:11.740Z,3136
2016-12-16T11:57:11.465Z,3264
2016-12-16T11:58:11.485Z,3664
2016-12-16T11:59:11.518Z,3820
2016-12-16T12:00:11.562Z,3792
2016-12-16T12:01:11.576Z,3540
2016-12-16T12:02:11.308Z,3712
2016-12-16T12:03:11.933Z,3652
2016-12-16T12:04:12.270Z,3716
2016-12-16T12:05:12.307Z,3492
2016-12-16T12:06:11.739Z,3252
2016-12-16T12:07:11.740Z,3460
2016-12-16T12:08:11.780Z,3436
2016-12-16T12:09:11.493Z,3464
2016-12-16T12:10:12.435Z,3680
2016-12-16T12:11:11.548Z,3832
2016-12-16T12:12:11.585Z,4056
2016-12-16T12:13:12.529Z,4108
2016-12-16T12:14:12.246Z,4292
2016-12-16T12:15:11.650Z,4288
2016-12-16T12:16:11.983Z,4204
2016-12-16T12:17:12.013Z,4136
2016-12-16T12:18:12.357Z,3980
2016-12-16T12:19:12.077Z,4016
2016-12-16T12:20:12.142Z,4232
2016-12-16T12:21:12.747Z,4144
2016-12-16T12:22:12.469Z,4168
2016-12-16T12:23:12.183Z,4112
2016-12-16T12:24:11.900Z,4176
2016-12-16T12:25:12.238Z,4124
2016-12-16T12:26:12.287Z,4184
2016-12-16T12:27:12.623Z,4196
2016-12-16T12:28:12.624Z,4256
2016-12-16T12:29:12.061Z,3908
2016-12-16T12:30:12.686Z,3720
2016-12-16T12:31:12.404Z,3520
2016-12-16T12:32:12.139Z,3360
2016-12-16T12:33:12.480Z,3308
2016-12-16T12:34:13.089Z,3560
2016-12-16T12:35:12.526Z,3728
2016-12-16T12:36:12.562Z,3852
2016-12-16T12:37:12.875Z,3660
2016-12-16T12:38:12.645Z,3556
2016-12-16T12:39:12.953Z,3968
2016-12-16T12:40:12.670Z,3816
2016-12-16T12:41:12.394Z,3688
2016-12-16T12:42:13.323Z,3640
2016-12-16T12:43:13.055Z,3324
2016-12-16T12:44:12.473Z,3048
2016-12-16T12:45:12.818Z,2984
2016-12-16T12:46:12.835Z,2880
2016-12-16T12:47:13.467Z,2720
2016-12-16T12:48:12.876Z,2612
2016-12-16T12:49:13.516Z,2468
2016-12-16T12:50:13.257Z,2068
2016-12-16T12:51:13.266Z,1992
2016-12-16T12:52:12.699Z,2076
2016-12-16T12:53:12.716Z,2056
2016-12-16T12:54:12.740Z,2012
2016-12-16T12:55:13.089Z,1892
2016-12-16T12:56:13.423Z,1884
2016-12-16T12:57:13.450Z,1848
2016-12-16T12:58:12.854Z,1928
2016-12-16T12:59:13.196Z,1920
2016-12-16T13:00:13.220Z,1844
2016-12-16T13:01:13.562Z,1844
2016-12-16T13:02:13.278Z,1864
2016-12-16T13:03:13.312Z,1904
2016-12-16T13:04:13.648Z,1844
2016-12-16T13:05:13.668Z,1872
2016-12-16T13:06:13.389Z,1892
2016-12-16T13:07:13.114Z,1928
2016-12-16T13:08:14.046Z,1888
2016-12-16T13:09:13.487Z,1836
2016-12-16T13:10:13.804Z,1792
2016-12-16T13:11:13.845Z,1792
2016-12-16T13:12:14.169Z,1720
2016-12-16T13:13:13.886Z,1756
2016-12-16T13:14:13.611Z,1740
2016-12-16T13:15:14.460Z,1660
2016-12-16T13:16:13.659Z,1576
2016-12-16T13:17:13.705Z,1520
2016-12-16T13:18:14.030Z,1536
2016-12-16T13:19:14.368Z,1564
2016-12-16T13:20:14.092Z,1612
2016-12-16T13:21:14.436Z,1592
2016-12-16T13:22:14.137Z,1592
2016-12-16T13:23:13.871Z,1592
2016-12-16T13:24:13.890Z,1568
2016-12-16T13:25:13.607Z,1572
2016-12-16T13:26:13.636Z,1588
2016-12-16T13:27:13.677Z,1628
2016-12-16T13:28:14.318Z,1636
2016-12-16T13:29:14.042Z,1596
2016-12-16T13:30:14.359Z,1588
2016-12-16T13:31:14.396Z,1616
2016-12-16T13:32:14.112Z,1584
2016-12-16T13:33:14.440Z,1568
2016-12-16T13:34:14.177Z,1540
2016-12-16T13:35:14.194Z,1552
2016-12-16T13:36:14.831Z,1556
2016-12-16T13:37:13.939Z,1576
2016-12-16T13:38:14.576Z,1596
2016-12-16T13:39:14.916Z,1616
2016-12-16T13:40:14.625Z,1616
2016-12-16T13:41:14.371Z,1612
2016-12-16T13:42:14.078Z,1596
2016-12-16T13:43:14.111Z,1584
2016-12-16T13:44:15.052Z,1568
2016-12-16T13:45:14.473Z,1564
2016-12-16T13:46:14.804Z,1560
2016-12-16T13:47:14.518Z,1532
2016-12-16T13:48:14.847Z,1524
2016-12-16T13:49:14.879Z,1496
2016-12-16T13:50:14.305Z,1488
2016-12-16T13:51:14.942Z,1504
2016-12-16T13:52:14.362Z,1484
2016-12-16T13:53:14.398Z,1444
2016-12-16T13:54:15.331Z,1420
2016-12-16T13:55:15.049Z,1392
2016-12-16T13:56:15.369Z,1372
2016-12-16T13:57:15.125Z,1352
2016-12-16T13:58:14.834Z,1332
2016-12-16T13:59:14.543Z,1288
2016-12-16T14:00:15.503Z,1252
2016-12-16T14:01:15.233Z,1232
2016-12-16T14:02:15.545Z,1208
2016-12-16T14:03:14.695Z,1196
2016-12-16T14:04:15.290Z,1200
2016-12-16T14:05:15.348Z,1156
2016-12-16T14:06:15.043Z,1132
2016-12-16T14:07:15.376Z,1128